sensor_id;sensor_type;location;lat;lon;timestamp;P1;durP1;ratioP1;P2;durP2;ratioP2
48403;SDS011;34202;52.536;6.042;2023-03-19T00:00:55;2.00;;;0.80;;
48403;SDS011;34202;52.536;6.042;2023-03-19T00:05:56;2.10;;;1.60;;
48403;SDS011;34202;52.536;6.042;2023-03-19T00:10:56;1.20;;;1.10;;
48403;SDS011;34202;52.536;6.042;2023-03-19T00:15:56;1.10;;;0.80;;
48403;SDS011;34202;52.536;6.042;2023-03-19T00:20:57;1.80;;;1.50;;
48403;SDS011;34202;52.536;6.042;2023-03-19T00:25:57;2.40;;;1.10;;
48403;SDS011;34202;52.536;6.042;2023-03-19T00:31:05;2.70;;;1.30;;
48403;SDS011;34202;52.536;6.042;2023-03-19T00:36:10;1.90;;;0.90;;
48403;SDS011;34202;52.536;6.042;2023-03-19T00:41:11;3.40;;;2.40;;
48403;SDS011;34202;52.536;6.042;2023-03-19T00:46:12;1.80;;;1.20;;
48403;SDS011;34202;52.536;6.042;2023-03-19T00:51:13;1.90;;;1.20;;
48403;SDS011;34202;52.536;6.042;2023-03-19T00:56:16;4.00;;;1.40;;
48403;SDS011;34202;52.536;6.042;2023-03-19T01:01:18;3.00;;;1.10;;
48403;SDS011;34202;52.536;6.042;2023-03-19T01:06:18;1.30;;;1.00;;
48403;SDS011;34202;52.536;6.042;2023-03-19T01:11:18;1.80;;;1.40;;
48403;SDS011;34202;52.536;6.042;2023-03-19T01:16:19;3.70;;;1.40;;
48403;SDS011;34202;52.536;6.042;2023-03-19T01:21:20;1.40;;;1.30;;
48403;SDS011;34202;52.536;6.042;2023-03-19T01:26:20;1.70;;;1.50;;
48403;SDS011;34202;52.536;6.042;2023-03-19T01:31:21;2.10;;;1.60;;
48403;SDS011;34202;52.536;6.042;2023-03-19T01:36:21;2.80;;;2.00;;
48403;SDS011;34202;52.536;6.042;2023-03-19T01:41:22;2.30;;;1.20;;
48403;SDS011;34202;52.536;6.042;2023-03-19T01:46:28;1.70;;;1.30;;
48403;SDS011;34202;52.536;6.042;2023-03-19T01:51:33;1.80;;;1.10;;
48403;SDS011;34202;52.536;6.042;2023-03-19T01:56:37;1.90;;;1.50;;
48403;SDS011;34202;52.536;6.042;2023-03-19T02:01:42;2.90;;;1.40;;
48403;SDS011;34202;52.536;6.042;2023-03-19T02:06:50;2.00;;;1.50;;
48403;SDS011;34202;52.536;6.042;2023-03-19T02:11:51;3.00;;;1.70;;
48403;SDS011;34202;52.536;6.042;2023-03-19T02:16:52;2.00;;;1.80;;
48403;SDS011;34202;52.536;6.042;2023-03-19T02:21:53;1.80;;;1.50;;
48403;SDS011;34202;52.536;6.042;2023-03-19T02:26:55;2.60;;;2.00;;
48403;SDS011;34202;52.536;6.042;2023-03-19T02:31:57;1.70;;;1.60;;
48403;SDS011;34202;52.536;6.042;2023-03-19T02:36:58;5.00;;;2.00;;
48403;SDS011;34202;52.536;6.042;2023-03-19T02:42:02;4.00;;;1.80;;
48403;SDS011;34202;52.536;6.042;2023-03-19T02:47:05;4.70;;;1.70;;
48403;SDS011;34202;52.536;6.042;2023-03-19T02:52:06;2.00;;;1.70;;
48403;SDS011;34202;52.536;6.042;2023-03-19T02:57:07;1.40;;;1.30;;
48403;SDS011;34202;52.536;6.042;2023-03-19T03:02:07;3.20;;;1.90;;
48403;SDS011;34202;52.536;6.042;2023-03-19T03:07:09;2.90;;;2.30;;
48403;SDS011;34202;52.536;6.042;2023-03-19T03:12:09;4.00;;;2.10;;
48403;SDS011;34202;52.536;6.042;2023-03-19T03:17:10;3.90;;;2.40;;
48403;SDS011;34202;52.536;6.042;2023-03-19T03:22:10;3.70;;;2.10;;
48403;SDS011;34202;52.536;6.042;2023-03-19T03:27:10;4.40;;;2.30;;
48403;SDS011;34202;52.536;6.042;2023-03-19T03:32:11;4.00;;;3.30;;
48403;SDS011;34202;52.536;6.042;2023-03-19T03:37:11;5.00;;;3.40;;
48403;SDS011;34202;52.536;6.042;2023-03-19T03:42:12;4.90;;;3.80;;
48403;SDS011;34202;52.536;6.042;2023-03-19T03:47:13;6.40;;;3.40;;
48403;SDS011;34202;52.536;6.042;2023-03-19T03:52:13;5.60;;;4.20;;
48403;SDS011;34202;52.536;6.042;2023-03-19T03:57:14;5.30;;;4.60;;
48403;SDS011;34202;52.536;6.042;2023-03-19T04:02:14;5.90;;;5.30;;
48403;SDS011;34202;52.536;6.042;2023-03-19T04:07:15;5.50;;;4.70;;
48403;SDS011;34202;52.536;6.042;2023-03-19T04:12:15;6.70;;;4.10;;
48403;SDS011;34202;52.536;6.042;2023-03-19T04:17:16;5.00;;;4.50;;
48403;SDS011;34202;52.536;6.042;2023-03-19T04:22:17;6.40;;;4.30;;
48403;SDS011;34202;52.536;6.042;2023-03-19T04:27:17;6.30;;;4.10;;
48403;SDS011;34202;52.536;6.042;2023-03-19T04:32:18;5.00;;;4.40;;
48403;SDS011;34202;52.536;6.042;2023-03-19T04:37:18;7.90;;;4.20;;
48403;SDS011;34202;52.536;6.042;2023-03-19T04:42:19;4.80;;;4.20;;
48403;SDS011;34202;52.536;6.042;2023-03-19T04:47:20;6.80;;;3.60;;
48403;SDS011;34202;52.536;6.042;2023-03-19T04:52:20;5.50;;;3.50;;
48403;SDS011;34202;52.536;6.042;2023-03-19T04:57:21;4.40;;;3.20;;
48403;SDS011;34202;52.536;6.042;2023-03-19T05:02:21;6.50;;;4.20;;
48403;SDS011;34202;52.536;6.042;2023-03-19T05:07:22;7.40;;;4.60;;
48403;SDS011;34202;52.536;6.042;2023-03-19T05:12:22;4.40;;;4.00;;
48403;SDS011;34202;52.536;6.042;2023-03-19T05:17:23;4.70;;;4.30;;
48403;SDS011;34202;52.536;6.042;2023-03-19T05:22:24;6.00;;;4.30;;
48403;SDS011;34202;52.536;6.042;2023-03-19T05:27:25;5.80;;;4.60;;
48403;SDS011;34202;52.536;6.042;2023-03-19T05:32:26;5.20;;;4.70;;
48403;SDS011;34202;52.536;6.042;2023-03-19T05:37:27;4.90;;;4.50;;
48403;SDS011;34202;52.536;6.042;2023-03-19T05:42:28;6.10;;;4.70;;
48403;SDS011;34202;52.536;6.042;2023-03-19T05:47:28;4.50;;;4.00;;
48403;SDS011;34202;52.536;6.042;2023-03-19T05:52:28;6.70;;;5.30;;
48403;SDS011;34202;52.536;6.042;2023-03-19T05:57:29;11.10;;;5.00;;
48403;SDS011;34202;52.536;6.042;2023-03-19T06:02:29;5.70;;;5.00;;
48403;SDS011;34202;52.536;6.042;2023-03-19T06:07:30;5.60;;;5.00;;
48403;SDS011;34202;52.536;6.042;2023-03-19T06:12:30;5.30;;;4.50;;
48403;SDS011;34202;52.536;6.042;2023-03-19T06:17:31;5.80;;;5.30;;
48403;SDS011;34202;52.536;6.042;2023-03-19T06:22:31;6.60;;;5.20;;
48403;SDS011;34202;52.536;6.042;2023-03-19T06:27:31;7.00;;;5.70;;
48403;SDS011;34202;52.536;6.042;2023-03-19T06:32:32;5.60;;;5.10;;
48403;SDS011;34202;52.536;6.042;2023-03-19T06:37:32;8.60;;;5.80;;
48403;SDS011;34202;52.536;6.042;2023-03-19T06:42:33;8.50;;;6.70;;
48403;SDS011;34202;52.536;6.042;2023-03-19T06:47:33;8.40;;;6.80;;
48403;SDS011;34202;52.536;6.042;2023-03-19T06:52:34;8.40;;;7.10;;
48403;SDS011;34202;52.536;6.042;2023-03-19T06:57:34;9.90;;;7.10;;
48403;SDS011;34202;52.536;6.042;2023-03-19T07:02:35;12.10;;;8.80;;
48403;SDS011;34202;52.536;6.042;2023-03-19T07:07:35;12.10;;;9.70;;
48403;SDS011;34202;52.536;6.042;2023-03-19T07:12:36;13.40;;;11.10;;
48403;SDS011;34202;52.536;6.042;2023-03-19T07:17:36;15.30;;;13.30;;
48403;SDS011;34202;52.536;6.042;2023-03-19T07:22:37;16.20;;;13.20;;
48403;SDS011;34202;52.536;6.042;2023-03-19T07:27:37;16.90;;;14.00;;
48403;SDS011;34202;52.536;6.042;2023-03-19T07:32:37;19.30;;;15.10;;
48403;SDS011;34202;52.536;6.042;2023-03-19T07:37:38;19.70;;;15.80;;
48403;SDS011;34202;52.536;6.042;2023-03-19T07:42:39;23.10;;;14.40;;
48403;SDS011;34202;52.536;6.042;2023-03-19T07:47:40;17.10;;;14.40;;
48403;SDS011;34202;52.536;6.042;2023-03-19T07:52:40;20.10;;;16.00;;
48403;SDS011;34202;52.536;6.042;2023-03-19T07:57:40;20.10;;;16.30;;
48403;SDS011;34202;52.536;6.042;2023-03-19T08:02:41;19.80;;;15.20;;
48403;SDS011;34202;52.536;6.042;2023-03-19T08:07:41;19.30;;;16.80;;
48403;SDS011;34202;52.536;6.042;2023-03-19T08:12:42;22.00;;;16.70;;
48403;SDS011;34202;52.536;6.042;2023-03-19T08:17:43;24.80;;;17.70;;
48403;SDS011;34202;52.536;6.042;2023-03-19T08:22:45;18.00;;;15.00;;
48403;SDS011;34202;52.536;6.042;2023-03-19T08:32:49;17.60;;;13.80;;
48403;SDS011;34202;52.536;6.042;2023-03-19T08:37:49;19.50;;;14.70;;
48403;SDS011;34202;52.536;6.042;2023-03-19T08:42:50;14.90;;;12.30;;
48403;SDS011;34202;52.536;6.042;2023-03-19T08:47:51;15.10;;;13.10;;
48403;SDS011;34202;52.536;6.042;2023-03-19T08:52:51;16.80;;;13.20;;
48403;SDS011;34202;52.536;6.042;2023-03-19T08:57:52;14.60;;;12.20;;
48403;SDS011;34202;52.536;6.042;2023-03-19T09:02:52;16.10;;;10.80;;
48403;SDS011;34202;52.536;6.042;2023-03-19T09:07:52;13.80;;;11.00;;
48403;SDS011;34202;52.536;6.042;2023-03-19T09:12:53;16.20;;;12.40;;
48403;SDS011;34202;52.536;6.042;2023-03-19T09:17:53;11.30;;;10.10;;
48403;SDS011;34202;52.536;6.042;2023-03-19T09:22:54;14.00;;;12.50;;
48403;SDS011;34202;52.536;6.042;2023-03-19T09:27:55;13.70;;;11.80;;
48403;SDS011;34202;52.536;6.042;2023-03-19T09:32:55;14.40;;;12.80;;
48403;SDS011;34202;52.536;6.042;2023-03-19T09:37:56;14.20;;;11.90;;
48403;SDS011;34202;52.536;6.042;2023-03-19T09:48:06;16.70;;;12.50;;
48403;SDS011;34202;52.536;6.042;2023-03-19T10:04:08;19.40;;;15.00;;
48403;SDS011;34202;52.536;6.042;2023-03-19T10:20:06;20.20;;;15.20;;
48403;SDS011;34202;52.536;6.042;2023-03-19T10:25:10;16.00;;;13.50;;
48403;SDS011;34202;52.536;6.042;2023-03-19T10:30:17;17.80;;;14.10;;
48403;SDS011;34202;52.536;6.042;2023-03-19T10:35:23;19.30;;;13.90;;
48403;SDS011;34202;52.536;6.042;2023-03-19T10:40:41;17.50;;;14.30;;
48403;SDS011;34202;52.536;6.042;2023-03-19T10:45:48;17.40;;;14.60;;
48403;SDS011;34202;52.536;6.042;2023-03-19T10:55:52;18.40;;;14.40;;
48403;SDS011;34202;52.536;6.042;2023-03-19T11:00:55;16.40;;;13.70;;
48403;SDS011;34202;52.536;6.042;2023-03-19T11:06:05;16.70;;;14.50;;
48403;SDS011;34202;52.536;6.042;2023-03-19T11:16:48;16.60;;;14.10;;
48403;SDS011;34202;52.536;6.042;2023-03-19T11:22:15;21.20;;;14.40;;
48403;SDS011;34202;52.536;6.042;2023-03-19T11:27:17;20.60;;;13.30;;
48403;SDS011;34202;52.536;6.042;2023-03-19T11:48:19;16.90;;;12.80;;
48403;SDS011;34202;52.536;6.042;2023-03-19T11:53:49;15.90;;;12.10;;
48403;SDS011;34202;52.536;6.042;2023-03-19T12:20:55;17.60;;;13.50;;
48403;SDS011;34202;52.536;6.042;2023-03-19T12:31:33;18.20;;;14.50;;
48403;SDS011;34202;52.536;6.042;2023-03-19T12:36:52;16.60;;;14.40;;
48403;SDS011;34202;52.536;6.042;2023-03-19T12:41:57;18.60;;;14.90;;
48403;SDS011;34202;52.536;6.042;2023-03-19T12:47:02;18.00;;;14.10;;
48403;SDS011;34202;52.536;6.042;2023-03-19T13:02:32;17.30;;;14.20;;
48403;SDS011;34202;52.536;6.042;2023-03-19T13:12:44;21.50;;;13.80;;
48403;SDS011;34202;52.536;6.042;2023-03-19T13:17:51;17.70;;;14.10;;
48403;SDS011;34202;52.536;6.042;2023-03-19T13:23:01;18.70;;;15.10;;
48403;SDS011;34202;52.536;6.042;2023-03-19T13:28:08;20.50;;;15.60;;
48403;SDS011;34202;52.536;6.042;2023-03-19T13:33:12;19.10;;;15.40;;
48403;SDS011;34202;52.536;6.042;2023-03-19T13:38:19;20.70;;;13.70;;
48403;SDS011;34202;52.536;6.042;2023-03-19T13:58:28;15.00;;;12.80;;
48403;SDS011;34202;52.536;6.042;2023-03-19T14:03:55;18.00;;;14.40;;
48403;SDS011;34202;52.536;6.042;2023-03-19T14:09:00;21.70;;;15.60;;
48403;SDS011;34202;52.536;6.042;2023-03-19T14:14:03;19.00;;;14.40;;
48403;SDS011;34202;52.536;6.042;2023-03-19T14:19:10;23.20;;;15.90;;
48403;SDS011;34202;52.536;6.042;2023-03-19T14:24:20;17.00;;;12.90;;
48403;SDS011;34202;52.536;6.042;2023-03-19T14:29:34;18.00;;;12.00;;
48403;SDS011;34202;52.536;6.042;2023-03-19T14:34:38;18.30;;;12.70;;
48403;SDS011;34202;52.536;6.042;2023-03-19T14:39:42;19.50;;;12.50;;
48403;SDS011;34202;52.536;6.042;2023-03-19T14:55:12;18.70;;;12.30;;
48403;SDS011;34202;52.536;6.042;2023-03-19T15:00:15;19.00;;;11.30;;
48403;SDS011;34202;52.536;6.042;2023-03-19T15:10:31;25.90;;;12.90;;
48403;SDS011;34202;52.536;6.042;2023-03-19T15:20:57;19.10;;;12.70;;
48403;SDS011;34202;52.536;6.042;2023-03-19T15:25:59;18.40;;;11.60;;
48403;SDS011;34202;52.536;6.042;2023-03-19T15:31:03;21.20;;;12.50;;
48403;SDS011;34202;52.536;6.042;2023-03-19T15:41:15;22.20;;;14.90;;
48403;SDS011;34202;52.536;6.042;2023-03-19T15:46:18;25.10;;;15.10;;
48403;SDS011;34202;52.536;6.042;2023-03-19T15:51:24;29.10;;;17.10;;
48403;SDS011;34202;52.536;6.042;2023-03-19T15:56:25;30.10;;;17.60;;
48403;SDS011;34202;52.536;6.042;2023-03-19T16:01:26;30.90;;;17.60;;
48403;SDS011;34202;52.536;6.042;2023-03-19T16:06:29;31.90;;;18.00;;
48403;SDS011;34202;52.536;6.042;2023-03-19T16:11:35;31.50;;;19.10;;
48403;SDS011;34202;52.536;6.042;2023-03-19T16:16:40;36.70;;;20.80;;
48403;SDS011;34202;52.536;6.042;2023-03-19T16:21:41;39.50;;;20.30;;
48403;SDS011;34202;52.536;6.042;2023-03-19T16:26:42;37.40;;;20.30;;
48403;SDS011;34202;52.536;6.042;2023-03-19T16:31:49;39.00;;;20.60;;
48403;SDS011;34202;52.536;6.042;2023-03-19T16:36:52;40.60;;;21.70;;
48403;SDS011;34202;52.536;6.042;2023-03-19T16:42:12;39.50;;;21.30;;
48403;SDS011;34202;52.536;6.042;2023-03-19T16:47:15;38.00;;;20.80;;
48403;SDS011;34202;52.536;6.042;2023-03-19T16:52:17;34.50;;;21.20;;
48403;SDS011;34202;52.536;6.042;2023-03-19T16:57:20;35.30;;;20.70;;
48403;SDS011;34202;52.536;6.042;2023-03-19T17:02:20;35.00;;;19.40;;
48403;SDS011;34202;52.536;6.042;2023-03-19T17:07:21;30.50;;;19.10;;
48403;SDS011;34202;52.536;6.042;2023-03-19T17:12:21;32.00;;;18.90;;
48403;SDS011;34202;52.536;6.042;2023-03-19T17:17:21;30.90;;;18.40;;
48403;SDS011;34202;52.536;6.042;2023-03-19T17:22:22;29.60;;;17.80;;
48403;SDS011;34202;52.536;6.042;2023-03-19T17:27:26;31.20;;;17.40;;
48403;SDS011;34202;52.536;6.042;2023-03-19T17:32:26;30.00;;;18.80;;
48403;SDS011;34202;52.536;6.042;2023-03-19T17:37:27;34.30;;;20.20;;
48403;SDS011;34202;52.536;6.042;2023-03-19T17:42:30;34.90;;;19.10;;
48403;SDS011;34202;52.536;6.042;2023-03-19T17:47:32;38.60;;;19.60;;
48403;SDS011;34202;52.536;6.042;2023-03-19T17:52:34;37.40;;;19.70;;
48403;SDS011;34202;52.536;6.042;2023-03-19T17:57:35;44.60;;;22.40;;
48403;SDS011;34202;52.536;6.042;2023-03-19T18:02:35;42.90;;;25.40;;
48403;SDS011;34202;52.536;6.042;2023-03-19T18:07:36;44.50;;;23.60;;
48403;SDS011;34202;52.536;6.042;2023-03-19T18:12:36;41.90;;;21.40;;
48403;SDS011;34202;52.536;6.042;2023-03-19T18:17:37;37.80;;;21.50;;
48403;SDS011;34202;52.536;6.042;2023-03-19T18:22:40;40.00;;;19.20;;
48403;SDS011;34202;52.536;6.042;2023-03-19T18:27:41;38.50;;;21.20;;
48403;SDS011;34202;52.536;6.042;2023-03-19T18:32:42;32.10;;;17.00;;
48403;SDS011;34202;52.536;6.042;2023-03-19T18:37:46;32.20;;;17.40;;
48403;SDS011;34202;52.536;6.042;2023-03-19T18:42:49;29.10;;;16.80;;
48403;SDS011;34202;52.536;6.042;2023-03-19T18:47:50;37.20;;;20.90;;
48403;SDS011;34202;52.536;6.042;2023-03-19T18:52:51;31.40;;;16.60;;
48403;SDS011;34202;52.536;6.042;2023-03-19T18:57:53;30.90;;;16.10;;
48403;SDS011;34202;52.536;6.042;2023-03-19T19:02:57;30.90;;;16.90;;
48403;SDS011;34202;52.536;6.042;2023-03-19T19:08:01;34.70;;;17.00;;
48403;SDS011;34202;52.536;6.042;2023-03-19T19:13:02;24.20;;;14.60;;
48403;SDS011;34202;52.536;6.042;2023-03-19T19:18:20;27.80;;;15.40;;
48403;SDS011;34202;52.536;6.042;2023-03-19T19:23:22;23.40;;;14.60;;
48403;SDS011;34202;52.536;6.042;2023-03-19T19:28:33;21.70;;;12.90;;
48403;SDS011;34202;52.536;6.042;2023-03-19T19:33:36;20.10;;;12.60;;
48403;SDS011;34202;52.536;6.042;2023-03-19T19:38:36;21.70;;;12.00;;
48403;SDS011;34202;52.536;6.042;2023-03-19T19:43:36;19.80;;;12.30;;
48403;SDS011;34202;52.536;6.042;2023-03-19T19:48:39;19.60;;;12.30;;
48403;SDS011;34202;52.536;6.042;2023-03-19T19:53:39;24.30;;;15.10;;
48403;SDS011;34202;52.536;6.042;2023-03-19T19:58:40;19.70;;;12.60;;
48403;SDS011;34202;52.536;6.042;2023-03-19T20:03:43;19.70;;;13.30;;
48403;SDS011;34202;52.536;6.042;2023-03-19T20:08:45;20.40;;;13.50;;
48403;SDS011;34202;52.536;6.042;2023-03-19T20:13:49;20.50;;;13.80;;
48403;SDS011;34202;52.536;6.042;2023-03-19T20:18:53;23.80;;;13.20;;
48403;SDS011;34202;52.536;6.042;2023-03-19T20:23:54;23.10;;;13.20;;
48403;SDS011;34202;52.536;6.042;2023-03-19T20:28:55;19.10;;;13.10;;
48403;SDS011;34202;52.536;6.042;2023-03-19T20:33:56;20.50;;;13.60;;
48403;SDS011;34202;52.536;6.042;2023-03-19T20:38:56;23.40;;;14.00;;
48403;SDS011;34202;52.536;6.042;2023-03-19T20:43:57;22.50;;;14.20;;
48403;SDS011;34202;52.536;6.042;2023-03-19T20:49:01;23.00;;;13.50;;
48403;SDS011;34202;52.536;6.042;2023-03-19T20:54:02;24.50;;;14.10;;
48403;SDS011;34202;52.536;6.042;2023-03-19T20:59:04;23.70;;;13.30;;
48403;SDS011;34202;52.536;6.042;2023-03-19T21:04:05;24.10;;;14.00;;
48403;SDS011;34202;52.536;6.042;2023-03-19T21:09:10;23.30;;;13.50;;
48403;SDS011;34202;52.536;6.042;2023-03-19T21:14:14;21.60;;;13.50;;
48403;SDS011;34202;52.536;6.042;2023-03-19T21:19:17;24.80;;;15.30;;
48403;SDS011;34202;52.536;6.042;2023-03-19T21:24:18;21.70;;;13.70;;
48403;SDS011;34202;52.536;6.042;2023-03-19T21:29:25;24.50;;;13.60;;
48403;SDS011;34202;52.536;6.042;2023-03-19T21:34:31;21.60;;;14.00;;
48403;SDS011;34202;52.536;6.042;2023-03-19T21:39:32;17.80;;;11.90;;
48403;SDS011;34202;52.536;6.042;2023-03-19T21:44:32;17.60;;;11.30;;
48403;SDS011;34202;52.536;6.042;2023-03-19T21:49:33;15.60;;;9.80;;
48403;SDS011;34202;52.536;6.042;2023-03-19T21:54:33;15.60;;;9.90;;
48403;SDS011;34202;52.536;6.042;2023-03-19T21:59:34;12.10;;;9.50;;
48403;SDS011;34202;52.536;6.042;2023-03-19T22:04:34;16.70;;;11.40;;
48403;SDS011;34202;52.536;6.042;2023-03-19T22:09:35;16.90;;;11.40;;
48403;SDS011;34202;52.536;6.042;2023-03-19T22:14:36;15.60;;;10.80;;
48403;SDS011;34202;52.536;6.042;2023-03-19T22:19:37;14.30;;;9.90;;
48403;SDS011;34202;52.536;6.042;2023-03-19T22:24:37;12.50;;;9.50;;
48403;SDS011;34202;52.536;6.042;2023-03-19T22:29:38;15.70;;;10.20;;
48403;SDS011;34202;52.536;6.042;2023-03-19T22:34:40;14.10;;;8.70;;
48403;SDS011;34202;52.536;6.042;2023-03-19T22:39:40;16.20;;;8.90;;
48403;SDS011;34202;52.536;6.042;2023-03-19T22:44:40;14.90;;;8.10;;
48403;SDS011;34202;52.536;6.042;2023-03-19T22:49:41;12.20;;;9.60;;
48403;SDS011;34202;52.536;6.042;2023-03-19T22:54:43;12.80;;;8.00;;
48403;SDS011;34202;52.536;6.042;2023-03-19T22:59:44;15.10;;;8.00;;
48403;SDS011;34202;52.536;6.042;2023-03-19T23:04:44;13.80;;;7.00;;
48403;SDS011;34202;52.536;6.042;2023-03-19T23:09:45;14.90;;;7.40;;
48403;SDS011;34202;52.536;6.042;2023-03-19T23:14:45;11.50;;;6.80;;
48403;SDS011;34202;52.536;6.042;2023-03-19T23:19:45;11.50;;;7.40;;
48403;SDS011;34202;52.536;6.042;2023-03-19T23:24:46;13.30;;;6.40;;
48403;SDS011;34202;52.536;6.042;2023-03-19T23:29:46;14.90;;;7.30;;
48403;SDS011;34202;52.536;6.042;2023-03-19T23:34:47;10.50;;;7.30;;
48403;SDS011;34202;52.536;6.042;2023-03-19T23:39:47;10.80;;;6.50;;
48403;SDS011;34202;52.536;6.042;2023-03-19T23:44:48;10.90;;;5.80;;
48403;SDS011;34202;52.536;6.042;2023-03-19T23:49:48;11.50;;;6.20;;
48403;SDS011;34202;52.536;6.042;2023-03-19T23:54:49;12.70;;;6.60;;
48403;SDS011;34202;52.536;6.042;2023-03-19T23:59:49;15.40;;;7.70;;
